sensor_id;sensor_type;location;lat;lon;timestamp;P1;durP1;ratioP1;P2;durP2;ratioP2
57247;SDS011;55809;46.618;10.764;2024-03-17T00:02:26;0.47;;;0.15;;
57247;SDS011;55809;46.618;10.764;2024-03-17T00:04:52;0.60;;;0.13;;
57247;SDS011;55809;46.618;10.764;2024-03-17T00:07:21;0.22;;;0.10;;
57247;SDS011;55809;46.618;10.764;2024-03-17T00:09:48;0.00;;;0.00;;
57247;SDS011;55809;46.618;10.764;2024-03-17T00:12:15;0.40;;;0.10;;
57247;SDS011;55809;46.618;10.764;2024-03-17T00:14:41;0.70;;;0.10;;
57247;SDS011;55809;46.618;10.764;2024-03-17T00:17:10;0.93;;;0.30;;
57247;SDS011;55809;46.618;10.764;2024-03-17T00:19:36;1.05;;;0.20;;
57247;SDS011;55809;46.618;10.764;2024-03-17T00:22:03;0.20;;;0.00;;
57247;SDS011;55809;46.618;10.764;2024-03-17T00:24:32;0.95;;;0.10;;
57247;SDS011;55809;46.618;10.764;2024-03-17T00:27:00;0.68;;;0.17;;
57247;SDS011;55809;46.618;10.764;2024-03-17T00:29:26;0.63;;;0.20;;
57247;SDS011;55809;46.618;10.764;2024-03-17T00:31:54;0.40;;;0.20;;
57247;SDS011;55809;46.618;10.764;2024-03-17T00:34:20;0.63;;;0.20;;
57247;SDS011;55809;46.618;10.764;2024-03-17T00:36:47;0.30;;;0.08;;
57247;SDS011;55809;46.618;10.764;2024-03-17T00:39:13;0.10;;;0.10;;
57247;SDS011;55809;46.618;10.764;2024-03-17T00:41:42;0.35;;;0.10;;
57247;SDS011;55809;46.618;10.764;2024-03-17T00:44:09;0.52;;;0.13;;
57247;SDS011;55809;46.618;10.764;2024-03-17T00:46:36;2.13;;;0.32;;
57247;SDS011;55809;46.618;10.764;2024-03-17T00:49:02;0.10;;;0.00;;
57247;SDS011;55809;46.618;10.764;2024-03-17T00:51:31;0.25;;;0.15;;
57247;SDS011;55809;46.618;10.764;2024-03-17T00:53:57;0.57;;;0.13;;
57247;SDS011;55809;46.618;10.764;2024-03-17T00:56:24;0.28;;;0.10;;
57247;SDS011;55809;46.618;10.764;2024-03-17T00:58:51;0.35;;;0.10;;
57247;SDS011;55809;46.618;10.764;2024-03-17T01:01:19;0.10;;;0.05;;
57247;SDS011;55809;46.618;10.764;2024-03-17T01:03:45;0.20;;;0.00;;
57247;SDS011;55809;46.618;10.764;2024-03-17T01:06:13;0.90;;;0.22;;
57247;SDS011;55809;46.618;10.764;2024-03-17T01:08:39;0.10;;;0.10;;
57247;SDS011;55809;46.618;10.764;2024-03-17T01:11:06;2.72;;;0.30;;
57247;SDS011;55809;46.618;10.764;2024-03-17T01:13:34;0.75;;;0.10;;
57247;SDS011;55809;46.618;10.764;2024-03-17T01:16:04;1.45;;;0.22;;
57247;SDS011;55809;46.618;10.764;2024-03-17T01:18:30;0.65;;;0.20;;
57247;SDS011;55809;46.618;10.764;2024-03-17T01:20:57;1.48;;;0.20;;
57247;SDS011;55809;46.618;10.764;2024-03-17T01:23:24;1.27;;;0.28;;
57247;SDS011;55809;46.618;10.764;2024-03-17T01:25:50;0.32;;;0.10;;
57247;SDS011;55809;46.618;10.764;2024-03-17T01:28:17;0.38;;;0.10;;
57247;SDS011;55809;46.618;10.764;2024-03-17T01:30:43;0.30;;;0.15;;
57247;SDS011;55809;46.618;10.764;2024-03-17T01:33:14;0.60;;;0.10;;
57247;SDS011;55809;46.618;10.764;2024-03-17T01:35:40;0.32;;;0.20;;
57247;SDS011;55809;46.618;10.764;2024-03-17T01:38:07;0.25;;;0.10;;
57247;SDS011;55809;46.618;10.764;2024-03-17T01:40:35;1.17;;;0.17;;
57247;SDS011;55809;46.618;10.764;2024-03-17T01:43:02;0.08;;;0.00;;
57247;SDS011;55809;46.618;10.764;2024-03-17T01:45:28;0.47;;;0.10;;
57247;SDS011;55809;46.618;10.764;2024-03-17T01:47:56;0.08;;;0.00;;
57247;SDS011;55809;46.618;10.764;2024-03-17T01:50:25;0.32;;;0.10;;
57247;SDS011;55809;46.618;10.764;2024-03-17T01:52:58;0.57;;;0.10;;
57247;SDS011;55809;46.618;10.764;2024-03-17T01:55:30;0.80;;;0.10;;
57247;SDS011;55809;46.618;10.764;2024-03-17T01:57:56;0.20;;;0.10;;
57247;SDS011;55809;46.618;10.764;2024-03-17T02:00:23;0.32;;;0.10;;
57247;SDS011;55809;46.618;10.764;2024-03-17T02:02:50;0.50;;;0.10;;
57247;SDS011;55809;46.618;10.764;2024-03-17T02:05:17;0.73;;;0.10;;
57247;SDS011;55809;46.618;10.764;2024-03-17T02:07:44;0.85;;;0.10;;
57247;SDS011;55809;46.618;10.764;2024-03-17T02:10:11;0.10;;;0.10;;
57247;SDS011;55809;46.618;10.764;2024-03-17T02:12:37;0.38;;;0.20;;
57247;SDS011;55809;46.618;10.764;2024-03-17T02:15:05;0.63;;;0.10;;
57247;SDS011;55809;46.618;10.764;2024-03-17T02:17:32;0.80;;;0.15;;
57247;SDS011;55809;46.618;10.764;2024-03-17T02:19:59;0.20;;;0.13;;
57247;SDS011;55809;46.618;10.764;2024-03-17T02:22:27;0.30;;;0.20;;
57247;SDS011;55809;46.618;10.764;2024-03-17T02:24:54;0.80;;;0.17;;
57247;SDS011;55809;46.618;10.764;2024-03-17T02:27:20;0.10;;;0.00;;
57247;SDS011;55809;46.618;10.764;2024-03-17T02:29:47;0.10;;;0.00;;
57247;SDS011;55809;46.618;10.764;2024-03-17T02:32:13;0.22;;;0.10;;
57247;SDS011;55809;46.618;10.764;2024-03-17T02:34:40;0.52;;;0.10;;
57247;SDS011;55809;46.618;10.764;2024-03-17T02:37:06;0.93;;;0.10;;
57247;SDS011;55809;46.618;10.764;2024-03-17T02:39:35;0.73;;;0.20;;
57247;SDS011;55809;46.618;10.764;2024-03-17T02:42:02;0.55;;;0.20;;
57247;SDS011;55809;46.618;10.764;2024-03-17T02:44:30;0.20;;;0.10;;
57247;SDS011;55809;46.618;10.764;2024-03-17T02:46:57;0.20;;;0.00;;
57247;SDS011;55809;46.618;10.764;2024-03-17T02:49:24;0.20;;;0.10;;
57247;SDS011;55809;46.618;10.764;2024-03-17T02:51:52;0.63;;;0.13;;
57247;SDS011;55809;46.618;10.764;2024-03-17T02:54:19;2.15;;;0.20;;
57247;SDS011;55809;46.618;10.764;2024-03-17T02:56:48;0.55;;;0.15;;
57247;SDS011;55809;46.618;10.764;2024-03-17T02:59:15;0.10;;;0.10;;
57247;SDS011;55809;46.618;10.764;2024-03-17T03:01:42;0.25;;;0.10;;
57247;SDS011;55809;46.618;10.764;2024-03-17T03:04:10;1.95;;;0.20;;
57247;SDS011;55809;46.618;10.764;2024-03-17T03:06:37;0.32;;;0.10;;
57247;SDS011;55809;46.618;10.764;2024-03-17T03:09:04;0.10;;;0.10;;
57247;SDS011;55809;46.618;10.764;2024-03-17T03:11:37;0.10;;;0.10;;
57247;SDS011;55809;46.618;10.764;2024-03-17T03:14:06;0.40;;;0.10;;
57247;SDS011;55809;46.618;10.764;2024-03-17T03:16:34;1.27;;;0.10;;
57247;SDS011;55809;46.618;10.764;2024-03-17T03:19:01;0.75;;;0.30;;
57247;SDS011;55809;46.618;10.764;2024-03-17T03:21:28;0.10;;;0.08;;
57247;SDS011;55809;46.618;10.764;2024-03-17T03:23:55;0.10;;;0.10;;
57247;SDS011;55809;46.618;10.764;2024-03-17T03:26:22;0.63;;;0.20;;
57247;SDS011;55809;46.618;10.764;2024-03-17T03:28:49;0.75;;;0.10;;
57247;SDS011;55809;46.618;10.764;2024-03-17T03:31:19;0.57;;;0.13;;
57247;SDS011;55809;46.618;10.764;2024-03-17T03:33:46;0.70;;;0.13;;
57247;SDS011;55809;46.618;10.764;2024-03-17T03:36:15;0.17;;;0.10;;
57247;SDS011;55809;46.618;10.764;2024-03-17T03:38:42;0.35;;;0.10;;
57247;SDS011;55809;46.618;10.764;2024-03-17T03:41:10;0.20;;;0.00;;
57247;SDS011;55809;46.618;10.764;2024-03-17T03:43:39;1.17;;;0.17;;
57247;SDS011;55809;46.618;10.764;2024-03-17T03:46:07;0.60;;;0.17;;
57247;SDS011;55809;46.618;10.764;2024-03-17T03:48:36;0.30;;;0.10;;
57247;SDS011;55809;46.618;10.764;2024-03-17T03:51:03;1.08;;;0.10;;
57247;SDS011;55809;46.618;10.764;2024-03-17T03:53:31;0.65;;;0.10;;
57247;SDS011;55809;46.618;10.764;2024-03-17T03:55:58;0.88;;;0.20;;
57247;SDS011;55809;46.618;10.764;2024-03-17T03:58:26;0.10;;;0.10;;
57247;SDS011;55809;46.618;10.764;2024-03-17T04:00:54;0.38;;;0.10;;
57247;SDS011;55809;46.618;10.764;2024-03-17T04:03:21;0.00;;;0.00;;
57247;SDS011;55809;46.618;10.764;2024-03-17T04:05:50;0.10;;;0.10;;
57247;SDS011;55809;46.618;10.764;2024-03-17T04:08:19;0.13;;;0.05;;
57247;SDS011;55809;46.618;10.764;2024-03-17T04:10:49;0.55;;;0.10;;
57247;SDS011;55809;46.618;10.764;2024-03-17T04:13:17;0.93;;;0.03;;
57247;SDS011;55809;46.618;10.764;2024-03-17T04:15:44;0.20;;;0.13;;
57247;SDS011;55809;46.618;10.764;2024-03-17T04:18:11;0.45;;;0.22;;
57247;SDS011;55809;46.618;10.764;2024-03-17T04:20:39;0.95;;;0.10;;
57247;SDS011;55809;46.618;10.764;2024-03-17T04:23:08;0.45;;;0.10;;
57247;SDS011;55809;46.618;10.764;2024-03-17T04:25:36;1.05;;;0.10;;
57247;SDS011;55809;46.618;10.764;2024-03-17T04:28:03;0.45;;;0.00;;
57247;SDS011;55809;46.618;10.764;2024-03-17T04:30:30;0.35;;;0.10;;
57247;SDS011;55809;46.618;10.764;2024-03-17T04:32:58;0.20;;;0.00;;
57247;SDS011;55809;46.618;10.764;2024-03-17T04:35:25;1.88;;;0.10;;
57247;SDS011;55809;46.618;10.764;2024-03-17T04:37:52;0.30;;;0.10;;
57247;SDS011;55809;46.618;10.764;2024-03-17T04:40:23;0.37;;;0.20;;
57247;SDS011;55809;46.618;10.764;2024-03-17T04:42:51;0.05;;;0.00;;
57247;SDS011;55809;46.618;10.764;2024-03-17T04:45:18;0.93;;;0.30;;
57247;SDS011;55809;46.618;10.764;2024-03-17T04:47:45;0.10;;;0.10;;
57247;SDS011;55809;46.618;10.764;2024-03-17T04:50:12;0.75;;;0.10;;
57247;SDS011;55809;46.618;10.764;2024-03-17T04:52:39;0.20;;;0.08;;
57247;SDS011;55809;46.618;10.764;2024-03-17T04:55:07;0.32;;;0.10;;
57247;SDS011;55809;46.618;10.764;2024-03-17T04:57:36;1.02;;;0.10;;
57247;SDS011;55809;46.618;10.764;2024-03-17T05:00:04;0.10;;;0.10;;
57247;SDS011;55809;46.618;10.764;2024-03-17T05:02:32;0.30;;;0.20;;
57247;SDS011;55809;46.618;10.764;2024-03-17T05:04:59;0.35;;;0.10;;
57247;SDS011;55809;46.618;10.764;2024-03-17T05:07:29;2.08;;;0.70;;
57247;SDS011;55809;46.618;10.764;2024-03-17T05:09:55;3.95;;;1.25;;
57247;SDS011;55809;46.618;10.764;2024-03-17T05:12:23;1.10;;;0.40;;
57247;SDS011;55809;46.618;10.764;2024-03-17T05:14:52;0.77;;;0.38;;
57247;SDS011;55809;46.618;10.764;2024-03-17T05:17:19;0.57;;;0.20;;
57247;SDS011;55809;46.618;10.764;2024-03-17T05:19:46;1.95;;;0.20;;
57247;SDS011;55809;46.618;10.764;2024-03-17T05:22:13;0.10;;;0.10;;
57247;SDS011;55809;46.618;10.764;2024-03-17T05:24:39;0.20;;;0.08;;
57247;SDS011;55809;46.618;10.764;2024-03-17T05:27:05;0.73;;;0.10;;
57247;SDS011;55809;46.618;10.764;2024-03-17T05:29:33;0.85;;;0.20;;
57247;SDS011;55809;46.618;10.764;2024-03-17T05:32:04;0.73;;;0.20;;
57247;SDS011;55809;46.618;10.764;2024-03-17T05:34:32;0.98;;;0.17;;
57247;SDS011;55809;46.618;10.764;2024-03-17T05:36:59;0.28;;;0.10;;
57247;SDS011;55809;46.618;10.764;2024-03-17T05:39:27;0.20;;;0.03;;
57247;SDS011;55809;46.618;10.764;2024-03-17T05:41:55;1.58;;;0.20;;
57247;SDS011;55809;46.618;10.764;2024-03-17T05:44:22;0.68;;;0.20;;
57247;SDS011;55809;46.618;10.764;2024-03-17T05:46:49;1.70;;;0.20;;
57247;SDS011;55809;46.618;10.764;2024-03-17T05:49:20;1.77;;;0.50;;
57247;SDS011;55809;46.618;10.764;2024-03-17T05:51:47;3.67;;;1.30;;
57247;SDS011;55809;46.618;10.764;2024-03-17T05:54:14;0.88;;;0.50;;
57247;SDS011;55809;46.618;10.764;2024-03-17T05:56:41;1.02;;;0.75;;
57247;SDS011;55809;46.618;10.764;2024-03-17T05:59:08;0.98;;;0.60;;
57247;SDS011;55809;46.618;10.764;2024-03-17T06:01:35;1.15;;;0.30;;
57247;SDS011;55809;46.618;10.764;2024-03-17T06:04:02;3.75;;;1.33;;
57247;SDS011;55809;46.618;10.764;2024-03-17T06:06:31;1.95;;;0.60;;
57247;SDS011;55809;46.618;10.764;2024-03-17T06:08:58;2.17;;;1.25;;
57247;SDS011;55809;46.618;10.764;2024-03-17T06:11:25;1.02;;;0.50;;
57247;SDS011;55809;46.618;10.764;2024-03-17T06:13:52;1.00;;;0.40;;
57247;SDS011;55809;46.618;10.764;2024-03-17T06:16:19;0.88;;;0.35;;
57247;SDS011;55809;46.618;10.764;2024-03-17T06:18:46;0.30;;;0.10;;
57247;SDS011;55809;46.618;10.764;2024-03-17T06:21:15;0.25;;;0.20;;
57247;SDS011;55809;46.618;10.764;2024-03-17T06:23:44;0.17;;;0.10;;
57247;SDS011;55809;46.618;10.764;2024-03-17T06:26:12;0.35;;;0.20;;
57247;SDS011;55809;46.618;10.764;2024-03-17T06:28:42;0.50;;;0.15;;
57247;SDS011;55809;46.618;10.764;2024-03-17T06:31:10;2.03;;;0.30;;
57247;SDS011;55809;46.618;10.764;2024-03-17T06:33:51;2.15;;;0.98;;
57247;SDS011;55809;46.618;10.764;2024-03-17T06:36:20;4.88;;;1.50;;
57247;SDS011;55809;46.618;10.764;2024-03-17T06:38:53;4.38;;;1.40;;
57247;SDS011;55809;46.618;10.764;2024-03-17T06:43:51;2.53;;;1.10;;
57247;SDS011;55809;46.618;10.764;2024-03-17T06:46:19;3.05;;;1.30;;
57247;SDS011;55809;46.618;10.764;2024-03-17T06:48:47;2.53;;;1.23;;
57247;SDS011;55809;46.618;10.764;2024-03-17T06:51:18;3.50;;;1.27;;
57247;SDS011;55809;46.618;10.764;2024-03-17T06:53:45;2.42;;;0.65;;
57247;SDS011;55809;46.618;10.764;2024-03-17T06:56:22;4.57;;;0.70;;
57247;SDS011;55809;46.618;10.764;2024-03-17T06:58:51;0.75;;;0.40;;
57247;SDS011;55809;46.618;10.764;2024-03-17T07:01:30;2.03;;;0.50;;
57247;SDS011;55809;46.618;10.764;2024-03-17T07:04:05;2.50;;;0.40;;
57247;SDS011;55809;46.618;10.764;2024-03-17T07:06:34;1.23;;;0.43;;
57247;SDS011;55809;46.618;10.764;2024-03-17T07:09:10;3.42;;;0.50;;
57247;SDS011;55809;46.618;10.764;2024-03-17T07:11:52;5.53;;;1.40;;
57247;SDS011;55809;46.618;10.764;2024-03-17T07:14:24;4.43;;;1.65;;
57247;SDS011;55809;46.618;10.764;2024-03-17T07:16:55;4.72;;;1.90;;
57247;SDS011;55809;46.618;10.764;2024-03-17T07:19:26;3.17;;;1.10;;
57247;SDS011;55809;46.618;10.764;2024-03-17T07:21:54;2.17;;;0.85;;
57247;SDS011;55809;46.618;10.764;2024-03-17T07:24:24;3.70;;;1.23;;
57247;SDS011;55809;46.618;10.764;2024-03-17T07:26:55;4.90;;;1.08;;
57247;SDS011;55809;46.618;10.764;2024-03-17T07:29:25;10.98;;;2.10;;
57247;SDS011;55809;46.618;10.764;2024-03-17T07:31:54;4.50;;;1.77;;
57247;SDS011;55809;46.618;10.764;2024-03-17T07:34:30;4.30;;;1.10;;
57247;SDS011;55809;46.618;10.764;2024-03-17T07:36:59;2.17;;;0.70;;
57247;SDS011;55809;46.618;10.764;2024-03-17T07:39:29;0.55;;;0.40;;
57247;SDS011;55809;46.618;10.764;2024-03-17T07:42:10;1.02;;;0.50;;
57247;SDS011;55809;46.618;10.764;2024-03-17T07:44:42;2.38;;;0.50;;
57247;SDS011;55809;46.618;10.764;2024-03-17T07:47:10;0.80;;;0.32;;
57247;SDS011;55809;46.618;10.764;2024-03-17T07:49:39;1.67;;;0.50;;
57247;SDS011;55809;46.618;10.764;2024-03-17T07:52:10;1.98;;;0.60;;
57247;SDS011;55809;46.618;10.764;2024-03-17T07:54:38;1.98;;;0.50;;
57247;SDS011;55809;46.618;10.764;2024-03-17T07:57:11;1.98;;;0.70;;
57247;SDS011;55809;46.618;10.764;2024-03-17T07:59:40;1.33;;;0.22;;
57247;SDS011;55809;46.618;10.764;2024-03-17T08:02:18;0.85;;;0.40;;
57247;SDS011;55809;46.618;10.764;2024-03-17T08:04:48;1.25;;;0.40;;
57247;SDS011;55809;46.618;10.764;2024-03-17T08:07:17;2.95;;;0.57;;
57247;SDS011;55809;46.618;10.764;2024-03-17T08:09:45;1.13;;;0.40;;
57247;SDS011;55809;46.618;10.764;2024-03-17T08:12:25;3.83;;;0.88;;
57247;SDS011;55809;46.618;10.764;2024-03-17T08:14:55;1.65;;;0.70;;
57247;SDS011;55809;46.618;10.764;2024-03-17T08:17:25;2.80;;;0.70;;
57247;SDS011;55809;46.618;10.764;2024-03-17T08:19:55;2.30;;;1.00;;
57247;SDS011;55809;46.618;10.764;2024-03-17T08:22:25;2.38;;;0.85;;
57247;SDS011;55809;46.618;10.764;2024-03-17T08:25:02;2.85;;;0.77;;
57247;SDS011;55809;46.618;10.764;2024-03-17T08:27:33;1.65;;;0.57;;
57247;SDS011;55809;46.618;10.764;2024-03-17T08:30:01;1.85;;;0.70;;
57247;SDS011;55809;46.618;10.764;2024-03-17T08:32:31;1.55;;;0.77;;
57247;SDS011;55809;46.618;10.764;2024-03-17T08:35:01;1.60;;;0.70;;
57247;SDS011;55809;46.618;10.764;2024-03-17T08:37:31;2.60;;;0.60;;
57247;SDS011;55809;46.618;10.764;2024-03-17T08:40:11;1.88;;;0.70;;
57247;SDS011;55809;46.618;10.764;2024-03-17T08:42:44;1.48;;;0.60;;
57247;SDS011;55809;46.618;10.764;2024-03-17T08:45:12;1.80;;;0.40;;
57247;SDS011;55809;46.618;10.764;2024-03-17T08:47:41;0.43;;;0.30;;
57247;SDS011;55809;46.618;10.764;2024-03-17T08:50:17;1.08;;;0.60;;
57247;SDS011;55809;46.618;10.764;2024-03-17T08:52:53;1.35;;;0.15;;
57247;SDS011;55809;46.618;10.764;2024-03-17T08:55:23;1.30;;;0.30;;
57247;SDS011;55809;46.618;10.764;2024-03-17T08:57:53;0.63;;;0.25;;
57247;SDS011;55809;46.618;10.764;2024-03-17T09:00:22;1.52;;;0.30;;
57247;SDS011;55809;46.618;10.764;2024-03-17T09:02:52;0.68;;;0.30;;
57247;SDS011;55809;46.618;10.764;2024-03-17T09:05:21;2.00;;;0.38;;
57247;SDS011;55809;46.618;10.764;2024-03-17T09:07:49;1.17;;;0.40;;
57247;SDS011;55809;46.618;10.764;2024-03-17T09:10:18;1.02;;;0.40;;
57247;SDS011;55809;46.618;10.764;2024-03-17T09:12:46;1.20;;;0.52;;
57247;SDS011;55809;46.618;10.764;2024-03-17T09:15:19;3.47;;;0.50;;
57247;SDS011;55809;46.618;10.764;2024-03-17T09:17:47;2.33;;;0.57;;
57247;SDS011;55809;46.618;10.764;2024-03-17T09:20:19;1.65;;;0.47;;
57247;SDS011;55809;46.618;10.764;2024-03-17T09:22:50;0.20;;;0.20;;
57247;SDS011;55809;46.618;10.764;2024-03-17T09:25:20;1.48;;;0.40;;
57247;SDS011;55809;46.618;10.764;2024-03-17T09:27:51;1.08;;;0.20;;
57247;SDS011;55809;46.618;10.764;2024-03-17T09:30:22;0.68;;;0.20;;
57247;SDS011;55809;46.618;10.764;2024-03-17T09:35:18;0.40;;;0.30;;
57247;SDS011;55809;46.618;10.764;2024-03-17T09:37:47;1.33;;;0.30;;
57247;SDS011;55809;46.618;10.764;2024-03-17T09:40:16;0.65;;;0.28;;
57247;SDS011;55809;46.618;10.764;2024-03-17T09:42:52;1.30;;;0.30;;
57247;SDS011;55809;46.618;10.764;2024-03-17T09:45:28;1.23;;;0.30;;
57247;SDS011;55809;46.618;10.764;2024-03-17T09:48:04;5.72;;;0.57;;
57247;SDS011;55809;46.618;10.764;2024-03-17T09:50:31;1.27;;;0.20;;
57247;SDS011;55809;46.618;10.764;2024-03-17T09:53:00;0.55;;;0.43;;
57247;SDS011;55809;46.618;10.764;2024-03-17T09:55:29;1.15;;;0.35;;
57247;SDS011;55809;46.618;10.764;2024-03-17T09:57:57;1.58;;;0.32;;
57247;SDS011;55809;46.618;10.764;2024-03-17T10:00:24;0.28;;;0.20;;
57247;SDS011;55809;46.618;10.764;2024-03-17T10:02:52;1.95;;;0.40;;
57247;SDS011;55809;46.618;10.764;2024-03-17T10:05:19;1.02;;;0.50;;
57247;SDS011;55809;46.618;10.764;2024-03-17T10:07:47;0.68;;;0.30;;
57247;SDS011;55809;46.618;10.764;2024-03-17T10:10:20;1.52;;;0.40;;
57247;SDS011;55809;46.618;10.764;2024-03-17T10:12:49;0.75;;;0.38;;
57247;SDS011;55809;46.618;10.764;2024-03-17T10:15:17;0.82;;;0.28;;
57247;SDS011;55809;46.618;10.764;2024-03-17T10:17:45;6.78;;;0.50;;
57247;SDS011;55809;46.618;10.764;2024-03-17T10:20:23;0.85;;;0.30;;
57247;SDS011;55809;46.618;10.764;2024-03-17T10:22:59;0.60;;;0.20;;
57247;SDS011;55809;46.618;10.764;2024-03-17T10:25:38;0.98;;;0.28;;
57247;SDS011;55809;46.618;10.764;2024-03-17T10:28:16;0.82;;;0.30;;
57247;SDS011;55809;46.618;10.764;2024-03-17T10:30:59;1.45;;;0.50;;
57247;SDS011;55809;46.618;10.764;2024-03-17T10:33:27;7.97;;;0.60;;
57247;SDS011;55809;46.618;10.764;2024-03-17T10:36:01;0.45;;;0.30;;
57247;SDS011;55809;46.618;10.764;2024-03-17T10:38:30;0.98;;;0.30;;
57247;SDS011;55809;46.618;10.764;2024-03-17T10:40:59;1.48;;;0.40;;
57247;SDS011;55809;46.618;10.764;2024-03-17T10:43:29;1.65;;;0.47;;
57247;SDS011;55809;46.618;10.764;2024-03-17T10:46:07;0.63;;;0.20;;
57247;SDS011;55809;46.618;10.764;2024-03-17T10:48:40;1.58;;;0.43;;
57247;SDS011;55809;46.618;10.764;2024-03-17T10:51:15;0.90;;;0.20;;
57247;SDS011;55809;46.618;10.764;2024-03-17T10:53:48;1.13;;;0.30;;
57247;SDS011;55809;46.618;10.764;2024-03-17T10:56:19;0.85;;;0.30;;
57247;SDS011;55809;46.618;10.764;2024-03-17T10:58:48;0.85;;;0.43;;
57247;SDS011;55809;46.618;10.764;2024-03-17T11:01:24;0.35;;;0.28;;
57247;SDS011;55809;46.618;10.764;2024-03-17T11:03:55;0.70;;;0.30;;
57247;SDS011;55809;46.618;10.764;2024-03-17T11:09:16;3.80;;;0.60;;
57247;SDS011;55809;46.618;10.764;2024-03-17T11:11:45;1.10;;;0.40;;
57247;SDS011;55809;46.618;10.764;2024-03-17T11:14:15;1.10;;;0.40;;
57247;SDS011;55809;46.618;10.764;2024-03-17T11:16:46;0.90;;;0.30;;
57247;SDS011;55809;46.618;10.764;2024-03-17T11:19:14;0.20;;;0.20;;
57247;SDS011;55809;46.618;10.764;2024-03-17T11:21:44;0.60;;;0.30;;
57247;SDS011;55809;46.618;10.764;2024-03-17T11:24:21;1.05;;;0.40;;
57247;SDS011;55809;46.618;10.764;2024-03-17T11:26:52;1.15;;;0.50;;
57247;SDS011;55809;46.618;10.764;2024-03-17T11:29:28;0.75;;;0.20;;
57247;SDS011;55809;46.618;10.764;2024-03-17T11:31:59;1.70;;;0.40;;
57247;SDS011;55809;46.618;10.764;2024-03-17T11:34:30;0.82;;;0.28;;
57247;SDS011;55809;46.618;10.764;2024-03-17T11:37:03;0.47;;;0.30;;
57247;SDS011;55809;46.618;10.764;2024-03-17T11:39:55;1.27;;;0.40;;
57247;SDS011;55809;46.618;10.764;2024-03-17T11:42:23;1.52;;;0.30;;
57247;SDS011;55809;46.618;10.764;2024-03-17T11:45:12;1.98;;;0.30;;
57247;SDS011;55809;46.618;10.764;2024-03-17T11:47:41;0.10;;;0.10;;
57247;SDS011;55809;46.618;10.764;2024-03-17T11:50:10;1.98;;;0.20;;
57247;SDS011;55809;46.618;10.764;2024-03-17T11:52:39;0.63;;;0.20;;
57247;SDS011;55809;46.618;10.764;2024-03-17T11:55:30;1.88;;;0.45;;
57247;SDS011;55809;46.618;10.764;2024-03-17T11:58:00;0.20;;;0.20;;
57247;SDS011;55809;46.618;10.764;2024-03-17T12:00:27;0.73;;;0.20;;
57247;SDS011;55809;46.618;10.764;2024-03-17T12:02:54;0.15;;;0.10;;
57247;SDS011;55809;46.618;10.764;2024-03-17T12:05:22;0.45;;;0.22;;
57247;SDS011;55809;46.618;10.764;2024-03-17T12:08:00;0.20;;;0.10;;
57247;SDS011;55809;46.618;10.764;2024-03-17T12:10:28;1.42;;;0.20;;
57247;SDS011;55809;46.618;10.764;2024-03-17T12:12:57;1.15;;;0.28;;
57247;SDS011;55809;46.618;10.764;2024-03-17T12:15:24;0.93;;;0.30;;
57247;SDS011;55809;46.618;10.764;2024-03-17T12:17:53;0.60;;;0.13;;
57247;SDS011;55809;46.618;10.764;2024-03-17T12:20:20;0.85;;;0.30;;
57247;SDS011;55809;46.618;10.764;2024-03-17T12:22:50;0.73;;;0.15;;
57247;SDS011;55809;46.618;10.764;2024-03-17T12:25:19;0.20;;;0.10;;
57247;SDS011;55809;46.618;10.764;2024-03-17T12:30:42;1.42;;;0.10;;
57247;SDS011;55809;46.618;10.764;2024-03-17T12:33:12;3.10;;;0.30;;
57247;SDS011;55809;46.618;10.764;2024-03-17T12:35:40;1.20;;;0.32;;
57247;SDS011;55809;46.618;10.764;2024-03-17T12:38:19;0.50;;;0.20;;
57247;SDS011;55809;46.618;10.764;2024-03-17T12:40:48;0.57;;;0.20;;
57247;SDS011;55809;46.618;10.764;2024-03-17T12:43:20;0.43;;;0.20;;
57247;SDS011;55809;46.618;10.764;2024-03-17T12:48:17;1.02;;;0.20;;
57247;SDS011;55809;46.618;10.764;2024-03-17T12:50:47;1.13;;;0.30;;
57247;SDS011;55809;46.618;10.764;2024-03-17T12:53:16;0.85;;;0.30;;
57247;SDS011;55809;46.618;10.764;2024-03-17T12:55:52;1.10;;;0.20;;
57247;SDS011;55809;46.618;10.764;2024-03-17T12:58:38;0.10;;;0.10;;
57247;SDS011;55809;46.618;10.764;2024-03-17T13:01:22;0.52;;;0.10;;
57247;SDS011;55809;46.618;10.764;2024-03-17T13:03:51;0.22;;;0.15;;
57247;SDS011;55809;46.618;10.764;2024-03-17T13:06:22;0.45;;;0.00;;
57247;SDS011;55809;46.618;10.764;2024-03-17T13:08:50;0.30;;;0.10;;
57247;SDS011;55809;46.618;10.764;2024-03-17T13:11:17;0.75;;;0.20;;
57247;SDS011;55809;46.618;10.764;2024-03-17T13:13:46;0.68;;;0.20;;
57247;SDS011;55809;46.618;10.764;2024-03-17T13:16:13;0.20;;;0.10;;
57247;SDS011;55809;46.618;10.764;2024-03-17T13:18:43;0.57;;;0.30;;
57247;SDS011;55809;46.618;10.764;2024-03-17T13:21:10;0.17;;;0.17;;
57247;SDS011;55809;46.618;10.764;2024-03-17T13:23:40;2.33;;;0.50;;
57247;SDS011;55809;46.618;10.764;2024-03-17T13:28:38;1.30;;;0.20;;
57247;SDS011;55809;46.618;10.764;2024-03-17T13:31:08;0.40;;;0.20;;
57247;SDS011;55809;46.618;10.764;2024-03-17T13:33:46;0.47;;;0.20;;
57247;SDS011;55809;46.618;10.764;2024-03-17T13:36:15;1.55;;;0.40;;
57247;SDS011;55809;46.618;10.764;2024-03-17T13:38:43;0.47;;;0.13;;
57247;SDS011;55809;46.618;10.764;2024-03-17T13:41:14;0.30;;;0.20;;
57247;SDS011;55809;46.618;10.764;2024-03-17T13:43:42;0.70;;;0.30;;
57247;SDS011;55809;46.618;10.764;2024-03-17T13:46:11;1.10;;;0.40;;
57247;SDS011;55809;46.618;10.764;2024-03-17T13:48:40;0.90;;;0.38;;
57247;SDS011;55809;46.618;10.764;2024-03-17T13:51:07;1.13;;;0.40;;
57247;SDS011;55809;46.618;10.764;2024-03-17T13:53:36;0.40;;;0.30;;
57247;SDS011;55809;46.618;10.764;2024-03-17T13:56:04;1.13;;;0.30;;
57247;SDS011;55809;46.618;10.764;2024-03-17T13:58:33;0.65;;;0.38;;
57247;SDS011;55809;46.618;10.764;2024-03-17T14:01:02;0.73;;;0.25;;
57247;SDS011;55809;46.618;10.764;2024-03-17T14:03:31;0.47;;;0.22;;
57247;SDS011;55809;46.618;10.764;2024-03-17T14:05:58;1.35;;;0.50;;
57247;SDS011;55809;46.618;10.764;2024-03-17T14:08:25;1.05;;;0.30;;
57247;SDS011;55809;46.618;10.764;2024-03-17T14:10:54;1.50;;;0.30;;
57247;SDS011;55809;46.618;10.764;2024-03-17T14:13:21;1.38;;;0.38;;
57247;SDS011;55809;46.618;10.764;2024-03-17T14:15:50;0.90;;;0.30;;
57247;SDS011;55809;46.618;10.764;2024-03-17T14:18:17;2.03;;;0.40;;
57247;SDS011;55809;46.618;10.764;2024-03-17T14:20:51;0.65;;;0.20;;
57247;SDS011;55809;46.618;10.764;2024-03-17T14:23:22;2.13;;;0.47;;
57247;SDS011;55809;46.618;10.764;2024-03-17T14:25:51;1.10;;;0.30;;
57247;SDS011;55809;46.618;10.764;2024-03-17T14:28:19;1.05;;;0.38;;
57247;SDS011;55809;46.618;10.764;2024-03-17T14:30:49;1.83;;;0.60;;
57247;SDS011;55809;46.618;10.764;2024-03-17T14:33:17;0.88;;;0.30;;
57247;SDS011;55809;46.618;10.764;2024-03-17T14:36:00;1.05;;;0.40;;
57247;SDS011;55809;46.618;10.764;2024-03-17T14:38:28;2.40;;;0.40;;
57247;SDS011;55809;46.618;10.764;2024-03-17T14:40:57;1.73;;;0.38;;
57247;SDS011;55809;46.618;10.764;2024-03-17T14:43:28;3.40;;;0.82;;
57247;SDS011;55809;46.618;10.764;2024-03-17T14:45:56;3.70;;;0.68;;
57247;SDS011;55809;46.618;10.764;2024-03-17T14:48:25;1.38;;;0.45;;
57247;SDS011;55809;46.618;10.764;2024-03-17T14:50:55;1.20;;;0.50;;
57247;SDS011;55809;46.618;10.764;2024-03-17T14:53:34;0.75;;;0.40;;
57247;SDS011;55809;46.618;10.764;2024-03-17T14:56:08;0.85;;;0.40;;
57247;SDS011;55809;46.618;10.764;2024-03-17T14:58:36;1.35;;;0.52;;
57247;SDS011;55809;46.618;10.764;2024-03-17T15:01:03;1.05;;;0.30;;
57247;SDS011;55809;46.618;10.764;2024-03-17T15:03:30;0.57;;;0.40;;